sensor_id;sensor_type;location;lat;lon;timestamp;P1;durP1;ratioP1;P2;durP2;ratioP2
801;SDS011;383;48.766;9.270;2023-11-22T00:00:12;23.08;;;7.30;;
801;SDS011;383;48.766;9.270;2023-11-22T00:02:39;16.20;;;7.07;;
801;SDS011;383;48.766;9.270;2023-11-22T00:05:06;17.98;;;6.75;;
801;SDS011;383;48.766;9.270;2023-11-22T00:07:34;14.48;;;6.97;;
801;SDS011;383;48.766;9.270;2023-11-22T00:10:03;16.13;;;6.80;;
801;SDS011;383;48.766;9.270;2023-11-22T00:12:31;8.23;;;4.03;;
801;SDS011;383;48.766;9.270;2023-11-22T00:15:01;8.10;;;4.40;;
801;SDS011;383;48.766;9.270;2023-11-22T00:17:29;7.22;;;3.10;;
801;SDS011;383;48.766;9.270;2023-11-22T00:19:57;6.90;;;3.05;;
801;SDS011;383;48.766;9.270;2023-11-22T00:22:28;2.85;;;2.50;;
801;SDS011;383;48.766;9.270;2023-11-22T00:24:57;3.30;;;2.40;;
801;SDS011;383;48.766;9.270;2023-11-22T00:27:25;4.40;;;2.47;;
801;SDS011;383;48.766;9.270;2023-11-22T00:29:52;2.75;;;2.38;;
801;SDS011;383;48.766;9.270;2023-11-22T00:32:19;4.13;;;2.90;;
801;SDS011;383;48.766;9.270;2023-11-22T00:34:47;7.47;;;3.58;;
801;SDS011;383;48.766;9.270;2023-11-22T00:37:14;7.63;;;3.40;;
801;SDS011;383;48.766;9.270;2023-11-22T00:39:41;5.55;;;3.40;;
801;SDS011;383;48.766;9.270;2023-11-22T00:42:07;5.72;;;3.60;;
801;SDS011;383;48.766;9.270;2023-11-22T00:44:35;7.40;;;2.83;;
801;SDS011;383;48.766;9.270;2023-11-22T00:47:02;5.20;;;3.10;;
801;SDS011;383;48.766;9.270;2023-11-22T00:49:30;7.53;;;3.53;;
801;SDS011;383;48.766;9.270;2023-11-22T00:51:57;7.65;;;3.63;;
801;SDS011;383;48.766;9.270;2023-11-22T00:54:24;5.97;;;3.58;;
801;SDS011;383;48.766;9.270;2023-11-22T00:56:51;7.85;;;3.95;;
801;SDS011;383;48.766;9.270;2023-11-22T00:59:17;5.75;;;3.42;;
801;SDS011;383;48.766;9.270;2023-11-22T01:01:46;4.95;;;3.17;;
801;SDS011;383;48.766;9.270;2023-11-22T01:04:13;6.00;;;3.72;;
801;SDS011;383;48.766;9.270;2023-11-22T01:06:40;8.13;;;3.15;;
801;SDS011;383;48.766;9.270;2023-11-22T01:09:06;6.55;;;3.63;;
801;SDS011;383;48.766;9.270;2023-11-22T01:11:33;6.97;;;3.55;;
801;SDS011;383;48.766;9.270;2023-11-22T01:14:00;5.18;;;3.20;;
801;SDS011;383;48.766;9.270;2023-11-22T01:16:27;8.60;;;4.35;;
801;SDS011;383;48.766;9.270;2023-11-22T01:18:55;7.97;;;3.95;;
801;SDS011;383;48.766;9.270;2023-11-22T01:21:22;9.63;;;4.15;;
801;SDS011;383;48.766;9.270;2023-11-22T01:23:48;7.82;;;4.80;;
801;SDS011;383;48.766;9.270;2023-11-22T01:26:15;9.25;;;4.03;;
801;SDS011;383;48.766;9.270;2023-11-22T01:28:42;8.02;;;4.28;;
801;SDS011;383;48.766;9.270;2023-11-22T01:31:10;7.60;;;4.07;;
801;SDS011;383;48.766;9.270;2023-11-22T01:33:38;6.60;;;4.03;;
801;SDS011;383;48.766;9.270;2023-11-22T01:36:07;4.72;;;3.47;;
801;SDS011;383;48.766;9.270;2023-11-22T01:38:34;7.13;;;4.28;;
801;SDS011;383;48.766;9.270;2023-11-22T01:41:00;7.03;;;4.70;;
801;SDS011;383;48.766;9.270;2023-11-22T01:43:27;7.85;;;4.15;;
801;SDS011;383;48.766;9.270;2023-11-22T01:45:54;5.85;;;3.58;;
801;SDS011;383;48.766;9.270;2023-11-22T01:48:21;10.50;;;4.25;;
801;SDS011;383;48.766;9.270;2023-11-22T01:50:48;9.73;;;4.40;;
801;SDS011;383;48.766;9.270;2023-11-22T01:53:16;10.05;;;5.13;;
801;SDS011;383;48.766;9.270;2023-11-22T01:55:46;11.30;;;4.80;;
801;SDS011;383;48.766;9.270;2023-11-22T01:58:14;9.18;;;4.15;;
801;SDS011;383;48.766;9.270;2023-11-22T02:00:42;9.30;;;4.72;;
801;SDS011;383;48.766;9.270;2023-11-22T02:03:14;11.18;;;5.18;;
801;SDS011;383;48.766;9.270;2023-11-22T02:05:41;5.47;;;4.05;;
801;SDS011;383;48.766;9.270;2023-11-22T02:08:09;8.25;;;3.75;;
801;SDS011;383;48.766;9.270;2023-11-22T02:10:37;6.18;;;3.13;;
801;SDS011;383;48.766;9.270;2023-11-22T02:13:04;7.68;;;4.78;;
801;SDS011;383;48.766;9.270;2023-11-22T02:15:32;6.50;;;3.60;;
801;SDS011;383;48.766;9.270;2023-11-22T02:17:59;5.13;;;2.75;;
801;SDS011;383;48.766;9.270;2023-11-22T02:20:26;6.90;;;3.50;;
801;SDS011;383;48.766;9.270;2023-11-22T02:22:53;7.38;;;3.70;;
801;SDS011;383;48.766;9.270;2023-11-22T02:25:22;3.58;;;3.35;;
801;SDS011;383;48.766;9.270;2023-11-22T02:27:49;4.82;;;3.20;;
801;SDS011;383;48.766;9.270;2023-11-22T02:30:15;5.53;;;3.80;;
801;SDS011;383;48.766;9.270;2023-11-22T02:32:42;6.57;;;3.30;;
801;SDS011;383;48.766;9.270;2023-11-22T02:35:10;5.78;;;3.13;;
801;SDS011;383;48.766;9.270;2023-11-22T02:37:36;8.18;;;3.40;;
801;SDS011;383;48.766;9.270;2023-11-22T02:40:05;8.80;;;4.22;;
801;SDS011;383;48.766;9.270;2023-11-22T02:42:37;4.93;;;2.97;;
801;SDS011;383;48.766;9.270;2023-11-22T02:45:04;9.82;;;3.47;;
801;SDS011;383;48.766;9.270;2023-11-22T02:47:32;8.18;;;3.53;;
801;SDS011;383;48.766;9.270;2023-11-22T02:49:59;5.65;;;3.17;;
801;SDS011;383;48.766;9.270;2023-11-22T02:52:26;2.92;;;2.22;;
801;SDS011;383;48.766;9.270;2023-11-22T02:54:53;5.28;;;3.30;;
801;SDS011;383;48.766;9.270;2023-11-22T02:57:20;9.75;;;3.50;;
801;SDS011;383;48.766;9.270;2023-11-22T02:59:48;6.20;;;3.40;;
801;SDS011;383;48.766;9.270;2023-11-22T03:02:15;7.43;;;3.35;;
801;SDS011;383;48.766;9.270;2023-11-22T03:04:42;3.50;;;2.65;;
801;SDS011;383;48.766;9.270;2023-11-22T03:07:09;10.30;;;3.70;;
801;SDS011;383;48.766;9.270;2023-11-22T03:09:36;5.82;;;3.20;;
801;SDS011;383;48.766;9.270;2023-11-22T03:12:03;6.38;;;3.42;;
801;SDS011;383;48.766;9.270;2023-11-22T03:14:30;8.48;;;3.78;;
801;SDS011;383;48.766;9.270;2023-11-22T03:16:58;6.32;;;3.17;;
801;SDS011;383;48.766;9.270;2023-11-22T03:19:24;7.00;;;3.80;;
801;SDS011;383;48.766;9.270;2023-11-22T03:21:51;4.70;;;2.85;;
801;SDS011;383;48.766;9.270;2023-11-22T03:24:18;5.32;;;3.58;;
801;SDS011;383;48.766;9.270;2023-11-22T03:26:44;5.15;;;2.90;;
801;SDS011;383;48.766;9.270;2023-11-22T03:29:11;5.35;;;3.25;;
801;SDS011;383;48.766;9.270;2023-11-22T03:31:38;6.50;;;4.03;;
801;SDS011;383;48.766;9.270;2023-11-22T03:34:06;5.70;;;3.22;;
801;SDS011;383;48.766;9.270;2023-11-22T03:36:33;10.93;;;3.15;;
801;SDS011;383;48.766;9.270;2023-11-22T03:38:59;6.95;;;3.72;;
801;SDS011;383;48.766;9.270;2023-11-22T03:41:26;5.82;;;3.83;;
801;SDS011;383;48.766;9.270;2023-11-22T03:43:53;7.97;;;3.70;;
801;SDS011;383;48.766;9.270;2023-11-22T03:46:19;6.47;;;3.60;;
801;SDS011;383;48.766;9.270;2023-11-22T03:48:46;9.55;;;4.20;;
801;SDS011;383;48.766;9.270;2023-11-22T03:51:14;7.47;;;3.78;;
801;SDS011;383;48.766;9.270;2023-11-22T03:53:41;8.50;;;3.42;;
801;SDS011;383;48.766;9.270;2023-11-22T03:56:08;7.72;;;3.70;;
801;SDS011;383;48.766;9.270;2023-11-22T03:58:35;7.20;;;3.15;;
801;SDS011;383;48.766;9.270;2023-11-22T04:01:02;7.47;;;3.30;;
801;SDS011;383;48.766;9.270;2023-11-22T04:03:29;9.27;;;4.10;;
801;SDS011;383;48.766;9.270;2023-11-22T04:05:55;10.55;;;3.75;;
801;SDS011;383;48.766;9.270;2023-11-22T04:08:24;4.38;;;3.30;;
801;SDS011;383;48.766;9.270;2023-11-22T04:10:51;8.02;;;3.38;;
801;SDS011;383;48.766;9.270;2023-11-22T04:13:18;7.50;;;4.20;;
801;SDS011;383;48.766;9.270;2023-11-22T04:15:44;7.75;;;3.40;;
801;SDS011;383;48.766;9.270;2023-11-22T04:18:11;6.15;;;3.75;;
801;SDS011;383;48.766;9.270;2023-11-22T04:20:38;6.50;;;3.25;;
801;SDS011;383;48.766;9.270;2023-11-22T04:23:05;6.28;;;3.30;;
801;SDS011;383;48.766;9.270;2023-11-22T04:25:33;6.00;;;3.40;;
801;SDS011;383;48.766;9.270;2023-11-22T04:28:00;9.90;;;4.97;;
801;SDS011;383;48.766;9.270;2023-11-22T04:30:27;9.85;;;3.55;;
801;SDS011;383;48.766;9.270;2023-11-22T04:32:53;8.38;;;2.97;;
801;SDS011;383;48.766;9.270;2023-11-22T04:35:20;9.88;;;4.55;;
801;SDS011;383;48.766;9.270;2023-11-22T04:37:47;6.82;;;3.30;;
801;SDS011;383;48.766;9.270;2023-11-22T04:40:14;7.63;;;3.70;;
801;SDS011;383;48.766;9.270;2023-11-22T04:42:42;8.70;;;4.38;;
801;SDS011;383;48.766;9.270;2023-11-22T04:45:09;4.20;;;3.08;;
801;SDS011;383;48.766;9.270;2023-11-22T04:47:36;7.05;;;3.60;;
801;SDS011;383;48.766;9.270;2023-11-22T04:50:03;5.10;;;3.30;;
801;SDS011;383;48.766;9.270;2023-11-22T04:52:30;8.18;;;4.30;;
801;SDS011;383;48.766;9.270;2023-11-22T04:54:57;8.45;;;4.45;;
801;SDS011;383;48.766;9.270;2023-11-22T04:57:24;7.95;;;3.60;;
801;SDS011;383;48.766;9.270;2023-11-22T04:59:52;9.20;;;4.00;;
801;SDS011;383;48.766;9.270;2023-11-22T05:02:19;5.35;;;3.40;;
801;SDS011;383;48.766;9.270;2023-11-22T05:04:46;5.70;;;4.05;;
801;SDS011;383;48.766;9.270;2023-11-22T05:07:14;7.88;;;4.30;;
801;SDS011;383;48.766;9.270;2023-11-22T05:09:41;9.20;;;3.55;;
801;SDS011;383;48.766;9.270;2023-11-22T05:12:08;5.18;;;3.78;;
801;SDS011;383;48.766;9.270;2023-11-22T05:14:35;7.32;;;3.38;;
801;SDS011;383;48.766;9.270;2023-11-22T05:17:03;7.28;;;3.30;;
801;SDS011;383;48.766;9.270;2023-11-22T05:19:30;11.77;;;3.40;;
801;SDS011;383;48.766;9.270;2023-11-22T05:21:57;6.82;;;3.75;;
801;SDS011;383;48.766;9.270;2023-11-22T05:24:24;5.97;;;3.30;;
801;SDS011;383;48.766;9.270;2023-11-22T05:26:51;4.90;;;3.42;;
801;SDS011;383;48.766;9.270;2023-11-22T05:29:17;6.25;;;3.90;;
801;SDS011;383;48.766;9.270;2023-11-22T05:31:44;5.60;;;2.97;;
801;SDS011;383;48.766;9.270;2023-11-22T05:34:12;5.63;;;3.50;;
801;SDS011;383;48.766;9.270;2023-11-22T05:36:39;7.70;;;3.67;;
801;SDS011;383;48.766;9.270;2023-11-22T05:39:06;6.15;;;3.63;;
801;SDS011;383;48.766;9.270;2023-11-22T05:41:33;6.53;;;3.55;;
801;SDS011;383;48.766;9.270;2023-11-22T05:44:01;7.25;;;3.72;;
801;SDS011;383;48.766;9.270;2023-11-22T05:46:28;8.50;;;3.65;;
801;SDS011;383;48.766;9.270;2023-11-22T05:48:55;8.95;;;4.70;;
801;SDS011;383;48.766;9.270;2023-11-22T05:51:23;7.05;;;2.90;;
801;SDS011;383;48.766;9.270;2023-11-22T05:53:50;4.25;;;3.20;;
801;SDS011;383;48.766;9.270;2023-11-22T05:56:16;7.20;;;3.58;;
801;SDS011;383;48.766;9.270;2023-11-22T05:58:44;7.75;;;3.55;;
801;SDS011;383;48.766;9.270;2023-11-22T06:01:10;3.30;;;2.75;;
801;SDS011;383;48.766;9.270;2023-11-22T06:03:38;6.30;;;3.70;;
801;SDS011;383;48.766;9.270;2023-11-22T06:06:05;8.57;;;3.97;;
801;SDS011;383;48.766;9.270;2023-11-22T06:08:34;4.93;;;3.67;;
801;SDS011;383;48.766;9.270;2023-11-22T06:11:01;10.32;;;4.38;;
801;SDS011;383;48.766;9.270;2023-11-22T06:13:28;7.63;;;3.90;;
801;SDS011;383;48.766;9.270;2023-11-22T06:15:55;7.85;;;3.80;;
801;SDS011;383;48.766;9.270;2023-11-22T06:18:22;6.75;;;4.53;;
801;SDS011;383;48.766;9.270;2023-11-22T06:20:54;6.65;;;3.60;;
801;SDS011;383;48.766;9.270;2023-11-22T06:23:21;9.45;;;4.03;;
801;SDS011;383;48.766;9.270;2023-11-22T06:25:49;6.32;;;3.47;;
801;SDS011;383;48.766;9.270;2023-11-22T06:28:16;9.68;;;3.97;;
801;SDS011;383;48.766;9.270;2023-11-22T06:30:43;6.30;;;3.58;;
801;SDS011;383;48.766;9.270;2023-11-22T06:33:10;8.85;;;3.80;;
801;SDS011;383;48.766;9.270;2023-11-22T06:35:37;7.30;;;3.60;;
801;SDS011;383;48.766;9.270;2023-11-22T06:38:03;10.55;;;4.20;;
801;SDS011;383;48.766;9.270;2023-11-22T06:40:30;7.75;;;3.70;;
801;SDS011;383;48.766;9.270;2023-11-22T06:42:58;5.93;;;3.65;;
801;SDS011;383;48.766;9.270;2023-11-22T06:45:25;6.05;;;3.50;;
801;SDS011;383;48.766;9.270;2023-11-22T06:47:52;3.45;;;2.78;;
801;SDS011;383;48.766;9.270;2023-11-22T06:50:18;11.02;;;4.47;;
801;SDS011;383;48.766;9.270;2023-11-22T06:52:45;8.75;;;3.55;;
801;SDS011;383;48.766;9.270;2023-11-22T06:55:15;6.30;;;2.90;;
801;SDS011;383;48.766;9.270;2023-11-22T06:57:42;5.32;;;2.90;;
801;SDS011;383;48.766;9.270;2023-11-22T07:00:11;3.22;;;2.58;;
801;SDS011;383;48.766;9.270;2023-11-22T07:02:38;7.93;;;2.55;;
801;SDS011;383;48.766;9.270;2023-11-22T07:05:05;6.53;;;3.35;;
801;SDS011;383;48.766;9.270;2023-11-22T07:07:33;6.75;;;4.88;;
801;SDS011;383;48.766;9.270;2023-11-22T07:10:00;6.95;;;3.58;;
801;SDS011;383;48.766;9.270;2023-11-22T07:12:27;6.60;;;3.65;;
801;SDS011;383;48.766;9.270;2023-11-22T07:14:54;3.55;;;2.53;;
801;SDS011;383;48.766;9.270;2023-11-22T07:17:22;6.63;;;2.95;;
801;SDS011;383;48.766;9.270;2023-11-22T07:19:50;3.88;;;3.10;;
801;SDS011;383;48.766;9.270;2023-11-22T07:22:18;4.28;;;2.70;;
801;SDS011;383;48.766;9.270;2023-11-22T07:24:47;5.82;;;3.40;;
801;SDS011;383;48.766;9.270;2023-11-22T07:27:16;7.38;;;3.67;;
801;SDS011;383;48.766;9.270;2023-11-22T07:29:43;8.70;;;3.42;;
801;SDS011;383;48.766;9.270;2023-11-22T07:32:12;6.85;;;3.28;;
801;SDS011;383;48.766;9.270;2023-11-22T07:34:41;4.90;;;2.80;;
801;SDS011;383;48.766;9.270;2023-11-22T07:37:08;3.55;;;2.55;;
801;SDS011;383;48.766;9.270;2023-11-22T07:39:35;5.80;;;2.90;;
801;SDS011;383;48.766;9.270;2023-11-22T07:42:03;5.65;;;3.30;;
801;SDS011;383;48.766;9.270;2023-11-22T07:44:32;3.97;;;2.75;;
801;SDS011;383;48.766;9.270;2023-11-22T07:47:00;7.38;;;4.10;;
801;SDS011;383;48.766;9.270;2023-11-22T07:49:27;10.60;;;4.93;;
801;SDS011;383;48.766;9.270;2023-11-22T07:51:56;4.43;;;2.75;;
801;SDS011;383;48.766;9.270;2023-11-22T07:54:23;12.52;;;3.20;;
801;SDS011;383;48.766;9.270;2023-11-22T07:56:50;16.27;;;4.60;;
801;SDS011;383;48.766;9.270;2023-11-22T07:59:17;8.23;;;3.28;;
801;SDS011;383;48.766;9.270;2023-11-22T08:01:45;6.10;;;3.67;;
801;SDS011;383;48.766;9.270;2023-11-22T08:04:12;5.18;;;3.38;;
801;SDS011;383;48.766;9.270;2023-11-22T08:06:39;5.10;;;2.97;;
801;SDS011;383;48.766;9.270;2023-11-22T08:09:08;9.35;;;3.83;;
801;SDS011;383;48.766;9.270;2023-11-22T08:11:34;4.75;;;2.50;;
801;SDS011;383;48.766;9.270;2023-11-22T08:14:01;3.90;;;3.40;;
801;SDS011;383;48.766;9.270;2023-11-22T08:16:29;7.18;;;3.45;;
801;SDS011;383;48.766;9.270;2023-11-22T08:18:55;9.68;;;4.10;;
801;SDS011;383;48.766;9.270;2023-11-22T08:21:22;8.95;;;2.97;;
801;SDS011;383;48.766;9.270;2023-11-22T08:23:49;7.95;;;3.17;;
801;SDS011;383;48.766;9.270;2023-11-22T08:26:19;4.38;;;2.95;;
801;SDS011;383;48.766;9.270;2023-11-22T08:28:46;8.27;;;3.53;;
801;SDS011;383;48.766;9.270;2023-11-22T08:31:12;5.97;;;3.97;;
801;SDS011;383;48.766;9.270;2023-11-22T08:33:41;12.65;;;5.22;;
801;SDS011;383;48.766;9.270;2023-11-22T08:36:08;7.30;;;3.10;;
801;SDS011;383;48.766;9.270;2023-11-22T08:38:35;5.47;;;3.47;;
801;SDS011;383;48.766;9.270;2023-11-22T08:41:06;6.18;;;3.10;;
801;SDS011;383;48.766;9.270;2023-11-22T08:43:34;10.82;;;4.65;;
801;SDS011;383;48.766;9.270;2023-11-22T08:46:01;6.32;;;3.55;;
801;SDS011;383;48.766;9.270;2023-11-22T08:48:29;6.70;;;3.20;;
801;SDS011;383;48.766;9.270;2023-11-22T08:50:56;6.18;;;3.42;;
801;SDS011;383;48.766;9.270;2023-11-22T08:53:23;17.92;;;6.03;;
801;SDS011;383;48.766;9.270;2023-11-22T08:55:50;9.73;;;4.65;;
801;SDS011;383;48.766;9.270;2023-11-22T08:58:19;7.78;;;4.40;;
801;SDS011;383;48.766;9.270;2023-11-22T09:00:48;8.70;;;3.83;;
801;SDS011;383;48.766;9.270;2023-11-22T09:03:14;9.40;;;3.42;;
801;SDS011;383;48.766;9.270;2023-11-22T09:05:42;6.00;;;3.08;;
801;SDS011;383;48.766;9.270;2023-11-22T09:08:09;5.75;;;3.28;;
801;SDS011;383;48.766;9.270;2023-11-22T09:10:38;8.02;;;3.83;;
801;SDS011;383;48.766;9.270;2023-11-22T09:13:06;8.43;;;3.47;;
801;SDS011;383;48.766;9.270;2023-11-22T09:15:32;6.15;;;3.30;;
801;SDS011;383;48.766;9.270;2023-11-22T09:18:01;8.73;;;3.42;;
801;SDS011;383;48.766;9.270;2023-11-22T09:20:28;7.68;;;3.25;;
801;SDS011;383;48.766;9.270;2023-11-22T09:22:55;7.55;;;3.58;;
801;SDS011;383;48.766;9.270;2023-11-22T09:25:22;5.93;;;3.15;;
801;SDS011;383;48.766;9.270;2023-11-22T09:27:50;7.43;;;3.40;;
801;SDS011;383;48.766;9.270;2023-11-22T09:30:21;8.90;;;3.83;;
801;SDS011;383;48.766;9.270;2023-11-22T09:32:59;8.15;;;3.75;;
801;SDS011;383;48.766;9.270;2023-11-22T09:35:28;8.65;;;3.55;;
801;SDS011;383;48.766;9.270;2023-11-22T09:37:56;7.45;;;4.18;;
801;SDS011;383;48.766;9.270;2023-11-22T09:40:23;7.55;;;3.55;;
801;SDS011;383;48.766;9.270;2023-11-22T09:42:50;7.95;;;3.75;;
801;SDS011;383;48.766;9.270;2023-11-22T09:45:19;10.25;;;4.22;;
801;SDS011;383;48.766;9.270;2023-11-22T09:47:47;11.90;;;3.85;;
801;SDS011;383;48.766;9.270;2023-11-22T09:50:17;7.00;;;4.03;;
801;SDS011;383;48.766;9.270;2023-11-22T09:52:46;8.95;;;4.35;;
801;SDS011;383;48.766;9.270;2023-11-22T09:55:18;7.25;;;4.07;;
801;SDS011;383;48.766;9.270;2023-11-22T09:57:47;13.13;;;3.85;;
801;SDS011;383;48.766;9.270;2023-11-22T10:00:15;8.57;;;4.35;;
801;SDS011;383;48.766;9.270;2023-11-22T10:02:44;8.07;;;4.85;;
801;SDS011;383;48.766;9.270;2023-11-22T10:05:10;8.55;;;3.85;;
801;SDS011;383;48.766;9.270;2023-11-22T10:07:39;8.38;;;3.70;;
801;SDS011;383;48.766;9.270;2023-11-22T10:10:06;7.50;;;3.70;;
801;SDS011;383;48.766;9.270;2023-11-22T10:12:36;8.77;;;4.53;;
801;SDS011;383;48.766;9.270;2023-11-22T10:15:12;10.30;;;4.28;;
801;SDS011;383;48.766;9.270;2023-11-22T10:17:47;7.63;;;3.08;;
801;SDS011;383;48.766;9.270;2023-11-22T10:20:21;9.48;;;4.35;;
801;SDS011;383;48.766;9.270;2023-11-22T10:22:50;10.23;;;4.43;;
801;SDS011;383;48.766;9.270;2023-11-22T10:25:18;10.77;;;4.18;;
801;SDS011;383;48.766;9.270;2023-11-22T10:27:48;7.80;;;3.90;;
801;SDS011;383;48.766;9.270;2023-11-22T10:30:16;10.23;;;4.57;;
801;SDS011;383;48.766;9.270;2023-11-22T10:32:43;7.40;;;4.07;;
801;SDS011;383;48.766;9.270;2023-11-22T10:35:10;7.82;;;4.13;;
801;SDS011;383;48.766;9.270;2023-11-22T10:37:39;7.20;;;4.20;;
801;SDS011;383;48.766;9.270;2023-11-22T10:40:11;10.73;;;4.03;;
801;SDS011;383;48.766;9.270;2023-11-22T10:42:39;4.95;;;3.42;;
801;SDS011;383;48.766;9.270;2023-11-22T10:45:07;7.18;;;3.72;;
801;SDS011;383;48.766;9.270;2023-11-22T10:47:35;11.38;;;4.10;;
801;SDS011;383;48.766;9.270;2023-11-22T10:50:04;8.32;;;4.45;;
801;SDS011;383;48.766;9.270;2023-11-22T10:52:33;7.68;;;4.55;;
801;SDS011;383;48.766;9.270;2023-11-22T10:55:02;9.60;;;3.83;;
801;SDS011;383;48.766;9.270;2023-11-22T10:57:31;6.85;;;3.95;;
801;SDS011;383;48.766;9.270;2023-11-22T11:00:03;8.75;;;4.85;;
801;SDS011;383;48.766;9.270;2023-11-22T11:02:33;11.75;;;4.88;;
801;SDS011;383;48.766;9.270;2023-11-22T11:05:07;10.68;;;5.07;;
801;SDS011;383;48.766;9.270;2023-11-22T11:07:42;9.50;;;4.35;;
801;SDS011;383;48.766;9.270;2023-11-22T11:10:14;11.00;;;4.05;;
801;SDS011;383;48.766;9.270;2023-11-22T11:12:44;10.50;;;4.70;;
801;SDS011;383;48.766;9.270;2023-11-22T11:15:11;6.03;;;4.15;;
801;SDS011;383;48.766;9.270;2023-11-22T11:17:39;6.72;;;4.05;;
801;SDS011;383;48.766;9.270;2023-11-22T11:20:07;7.60;;;4.93;;
801;SDS011;383;48.766;9.270;2023-11-22T11:22:38;10.23;;;4.80;;
801;SDS011;383;48.766;9.270;2023-11-22T11:25:05;11.00;;;5.10;;
801;SDS011;383;48.766;9.270;2023-11-22T11:27:33;6.72;;;4.00;;
801;SDS011;383;48.766;9.270;2023-11-22T11:30:03;11.68;;;4.95;;
801;SDS011;383;48.766;9.270;2023-11-22T11:33:09;6.78;;;4.32;;
801;SDS011;383;48.766;9.270;2023-11-22T11:35:37;8.80;;;4.75;;
801;SDS011;383;48.766;9.270;2023-11-22T11:38:05;8.23;;;4.63;;
801;SDS011;383;48.766;9.270;2023-11-22T11:40:34;7.45;;;4.35;;
801;SDS011;383;48.766;9.270;2023-11-22T11:43:01;10.27;;;4.85;;
801;SDS011;383;48.766;9.270;2023-11-22T11:45:29;11.75;;;5.78;;
801;SDS011;383;48.766;9.270;2023-11-22T11:47:56;8.88;;;4.07;;
801;SDS011;383;48.766;9.270;2023-11-22T11:50:23;6.43;;;4.07;;
801;SDS011;383;48.766;9.270;2023-11-22T11:52:50;11.07;;;4.68;;
801;SDS011;383;48.766;9.270;2023-11-22T11:55:16;8.80;;;4.63;;
801;SDS011;383;48.766;9.270;2023-11-22T11:57:43;8.00;;;4.38;;
801;SDS011;383;48.766;9.270;2023-11-22T12:00:12;8.85;;;4.70;;
801;SDS011;383;48.766;9.270;2023-11-22T12:02:41;19.48;;;5.28;;
801;SDS011;383;48.766;9.270;2023-11-22T12:05:08;9.75;;;4.75;;
801;SDS011;383;48.766;9.270;2023-11-22T12:07:35;9.45;;;4.70;;
801;SDS011;383;48.766;9.270;2023-11-22T12:10:02;8.85;;;4.80;;
801;SDS011;383;48.766;9.270;2023-11-22T12:12:31;11.35;;;5.45;;
801;SDS011;383;48.766;9.270;2023-11-22T12:14:57;11.68;;;4.93;;
801;SDS011;383;48.766;9.270;2023-11-22T12:17:25;5.90;;;4.13;;
801;SDS011;383;48.766;9.270;2023-11-22T12:19:53;11.38;;;5.13;;
801;SDS011;383;48.766;9.270;2023-11-22T12:22:36;9.38;;;5.15;;
801;SDS011;383;48.766;9.270;2023-11-22T12:25:04;8.77;;;5.00;;
801;SDS011;383;48.766;9.270;2023-11-22T12:27:31;17.60;;;6.43;;
801;SDS011;383;48.766;9.270;2023-11-22T12:29:58;10.48;;;5.43;;
801;SDS011;383;48.766;9.270;2023-11-22T12:32:26;7.53;;;4.80;;
801;SDS011;383;48.766;9.270;2023-11-22T12:34:54;9.02;;;4.88;;
801;SDS011;383;48.766;9.270;2023-11-22T12:37:21;12.00;;;5.60;;
801;SDS011;383;48.766;9.270;2023-11-22T12:39:49;7.60;;;5.72;;
801;SDS011;383;48.766;9.270;2023-11-22T12:42:17;9.50;;;4.63;;
801;SDS011;383;48.766;9.270;2023-11-22T12:44:48;11.35;;;5.22;;
801;SDS011;383;48.766;9.270;2023-11-22T12:47:30;8.73;;;4.53;;
801;SDS011;383;48.766;9.270;2023-11-22T12:50:01;8.18;;;4.95;;
801;SDS011;383;48.766;9.270;2023-11-22T12:52:28;11.40;;;5.57;;
801;SDS011;383;48.766;9.270;2023-11-22T12:54:55;15.32;;;5.35;;
801;SDS011;383;48.766;9.270;2023-11-22T12:57:22;9.13;;;4.78;;
801;SDS011;383;48.766;9.270;2023-11-22T12:59:49;8.20;;;4.70;;
801;SDS011;383;48.766;9.270;2023-11-22T13:02:16;10.77;;;5.32;;
801;SDS011;383;48.766;9.270;2023-11-22T13:04:42;11.20;;;5.00;;
801;SDS011;383;48.766;9.270;2023-11-22T13:07:12;8.07;;;4.10;;
801;SDS011;383;48.766;9.270;2023-11-22T13:09:37;6.70;;;4.60;;
801;SDS011;383;48.766;9.270;2023-11-22T13:12:04;6.22;;;3.95;;
801;SDS011;383;48.766;9.270;2023-11-22T13:14:31;11.20;;;4.35;;
801;SDS011;383;48.766;9.270;2023-11-22T13:17:03;8.55;;;4.60;;
801;SDS011;383;48.766;9.270;2023-11-22T13:19:31;13.10;;;4.78;;
801;SDS011;383;48.766;9.270;2023-11-22T13:21:58;10.48;;;4.60;;
801;SDS011;383;48.766;9.270;2023-11-22T13:24:26;10.27;;;5.05;;
801;SDS011;383;48.766;9.270;2023-11-22T13:26:53;12.02;;;5.65;;
801;SDS011;383;48.766;9.270;2023-11-22T13:29:20;10.30;;;4.70;;
801;SDS011;383;48.766;9.270;2023-11-22T13:31:46;9.05;;;4.40;;
801;SDS011;383;48.766;9.270;2023-11-22T13:34:13;8.77;;;5.68;;
801;SDS011;383;48.766;9.270;2023-11-22T13:36:40;10.02;;;4.65;;
801;SDS011;383;48.766;9.270;2023-11-22T13:39:06;8.75;;;5.07;;
801;SDS011;383;48.766;9.270;2023-11-22T13:41:34;7.50;;;4.55;;
801;SDS011;383;48.766;9.270;2023-11-22T13:44:01;6.25;;;3.28;;
801;SDS011;383;48.766;9.270;2023-11-22T13:46:28;8.50;;;4.72;;
801;SDS011;383;48.766;9.270;2023-11-22T13:48:54;9.10;;;4.43;;
801;SDS011;383;48.766;9.270;2023-11-22T13:51:23;10.27;;;4.15;;
801;SDS011;383;48.766;9.270;2023-11-22T13:53:50;7.15;;;4.93;;
801;SDS011;383;48.766;9.270;2023-11-22T13:56:18;14.40;;;5.03;;
801;SDS011;383;48.766;9.270;2023-11-22T13:58:46;9.68;;;4.40;;
801;SDS011;383;48.766;9.270;2023-11-22T14:01:13;10.63;;;4.82;;
801;SDS011;383;48.766;9.270;2023-11-22T14:03:46;8.48;;;4.00;;
801;SDS011;383;48.766;9.270;2023-11-22T14:06:13;11.38;;;4.43;;
801;SDS011;383;48.766;9.270;2023-11-22T14:08:41;7.45;;;3.90;;
801;SDS011;383;48.766;9.270;2023-11-22T14:11:09;9.25;;;4.38;;
801;SDS011;383;48.766;9.270;2023-11-22T14:13:36;7.88;;;4.38;;
801;SDS011;383;48.766;9.270;2023-11-22T14:16:06;6.38;;;3.95;;
801;SDS011;383;48.766;9.270;2023-11-22T14:18:34;8.48;;;4.30;;
801;SDS011;383;48.766;9.270;2023-11-22T14:21:01;8.20;;;3.78;;
801;SDS011;383;48.766;9.270;2023-11-22T14:23:29;12.45;;;5.25;;
801;SDS011;383;48.766;9.270;2023-11-22T14:25:56;6.55;;;4.15;;
801;SDS011;383;48.766;9.270;2023-11-22T14:28:22;9.73;;;4.38;;
801;SDS011;383;48.766;9.270;2023-11-22T14:30:49;5.40;;;3.65;;
801;SDS011;383;48.766;9.270;2023-11-22T14:33:20;11.70;;;4.80;;
801;SDS011;383;48.766;9.270;2023-11-22T14:35:47;7.30;;;4.65;;
801;SDS011;383;48.766;9.270;2023-11-22T14:38:14;7.88;;;4.30;;
801;SDS011;383;48.766;9.270;2023-11-22T14:40:42;9.52;;;5.47;;
801;SDS011;383;48.766;9.270;2023-11-22T14:43:09;10.43;;;5.68;;
801;SDS011;383;48.766;9.270;2023-11-22T14:45:36;7.13;;;3.65;;
801;SDS011;383;48.766;9.270;2023-11-22T14:48:04;7.50;;;3.85;;
801;SDS011;383;48.766;9.270;2023-11-22T14:50:34;10.05;;;4.72;;
801;SDS011;383;48.766;9.270;2023-11-22T14:53:01;8.77;;;4.50;;
801;SDS011;383;48.766;9.270;2023-11-22T14:55:28;7.20;;;3.83;;
801;SDS011;383;48.766;9.270;2023-11-22T14:57:54;11.70;;;4.90;;
801;SDS011;383;48.766;9.270;2023-11-22T15:00:22;11.90;;;4.20;;
801;SDS011;383;48.766;9.270;2023-11-22T15:02:50;9.13;;;4.60;;
801;SDS011;383;48.766;9.270;2023-11-22T15:05:19;7.50;;;4.80;;
801;SDS011;383;48.766;9.270;2023-11-22T15:07:48;8.15;;;4.25;;
801;SDS011;383;48.766;9.270;2023-11-22T15:10:19;9.63;;;5.32;;
801;SDS011;383;48.766;9.270;2023-11-22T15:12:46;5.95;;;4.50;;
801;SDS011;383;48.766;9.270;2023-11-22T15:15:13;5.90;;;3.90;;
801;SDS011;383;48.766;9.270;2023-11-22T15:17:40;8.63;;;4.85;;
801;SDS011;383;48.766;9.270;2023-11-22T15:20:07;9.13;;;4.60;;
801;SDS011;383;48.766;9.270;2023-11-22T15:22:35;9.18;;;4.10;;
801;SDS011;383;48.766;9.270;2023-11-22T15:25:03;7.78;;;4.45;;
801;SDS011;383;48.766;9.270;2023-11-22T15:27:31;13.10;;;4.68;;
801;SDS011;383;48.766;9.270;2023-11-22T15:29:57;11.70;;;5.10;;
801;SDS011;383;48.766;9.270;2023-11-22T15:32:24;6.93;;;4.07;;
801;SDS011;383;48.766;9.270;2023-11-22T15:34:51;12.85;;;5.60;;
801;SDS011;383;48.766;9.270;2023-11-22T15:37:18;6.63;;;4.30;;
801;SDS011;383;48.766;9.270;2023-11-22T15:39:45;11.38;;;4.60;;
801;SDS011;383;48.766;9.270;2023-11-22T15:42:13;12.48;;;4.60;;
801;SDS011;383;48.766;9.270;2023-11-22T15:44:39;7.32;;;3.90;;